sensor_id;sensor_type;location;lat;lon;timestamp;P1;durP1;ratioP1;P2;durP2;ratioP2
19339;SDS011;9804;52.350;6.684;2023-07-20T00:02:05;8.98;;;7.30;;
19339;SDS011;9804;52.350;6.684;2023-07-20T00:04:32;10.63;;;6.95;;
19339;SDS011;9804;52.350;6.684;2023-07-20T00:06:57;8.93;;;7.60;;
19339;SDS011;9804;52.350;6.684;2023-07-20T00:09:24;11.15;;;8.10;;
19339;SDS011;9804;52.350;6.684;2023-07-20T00:11:49;12.52;;;7.97;;
19339;SDS011;9804;52.350;6.684;2023-07-20T00:14:16;11.68;;;8.23;;
19339;SDS011;9804;52.350;6.684;2023-07-20T00:16:42;11.73;;;8.88;;
19339;SDS011;9804;52.350;6.684;2023-07-20T00:19:07;9.45;;;7.30;;
19339;SDS011;9804;52.350;6.684;2023-07-20T00:21:33;9.27;;;7.72;;
19339;SDS011;9804;52.350;6.684;2023-07-20T00:23:58;9.25;;;7.40;;
19339;SDS011;9804;52.350;6.684;2023-07-20T00:26:24;8.57;;;6.68;;
19339;SDS011;9804;52.350;6.684;2023-07-20T00:28:49;7.70;;;6.72;;
19339;SDS011;9804;52.350;6.684;2023-07-20T00:31:16;7.57;;;6.85;;
19339;SDS011;9804;52.350;6.684;2023-07-20T00:33:42;8.20;;;6.47;;
19339;SDS011;9804;52.350;6.684;2023-07-20T00:36:07;9.13;;;6.07;;
19339;SDS011;9804;52.350;6.684;2023-07-20T00:38:32;6.80;;;6.13;;
19339;SDS011;9804;52.350;6.684;2023-07-20T00:40:58;7.50;;;5.90;;
19339;SDS011;9804;52.350;6.684;2023-07-20T00:43:23;7.50;;;5.13;;
19339;SDS011;9804;52.350;6.684;2023-07-20T00:45:49;8.15;;;5.22;;
19339;SDS011;9804;52.350;6.684;2023-07-20T00:48:14;8.23;;;5.28;;
19339;SDS011;9804;52.350;6.684;2023-07-20T00:50:40;6.30;;;4.82;;
19339;SDS011;9804;52.350;6.684;2023-07-20T00:53:07;5.35;;;4.85;;
19339;SDS011;9804;52.350;6.684;2023-07-20T00:55:32;5.20;;;4.57;;
19339;SDS011;9804;52.350;6.684;2023-07-20T00:57:59;5.15;;;4.65;;
19339;SDS011;9804;52.350;6.684;2023-07-20T01:00:24;5.53;;;4.97;;
19339;SDS011;9804;52.350;6.684;2023-07-20T01:02:50;7.60;;;5.22;;
19339;SDS011;9804;52.350;6.684;2023-07-20T01:05:16;6.25;;;5.00;;
19339;SDS011;9804;52.350;6.684;2023-07-20T01:07:43;6.05;;;5.00;;
19339;SDS011;9804;52.350;6.684;2023-07-20T01:12:42;6.93;;;4.93;;
19339;SDS011;9804;52.350;6.684;2023-07-20T01:15:09;7.90;;;5.40;;
19339;SDS011;9804;52.350;6.684;2023-07-20T01:17:35;6.00;;;5.40;;
19339;SDS011;9804;52.350;6.684;2023-07-20T01:20:01;6.38;;;5.07;;
19339;SDS011;9804;52.350;6.684;2023-07-20T01:22:40;5.90;;;4.88;;
19339;SDS011;9804;52.350;6.684;2023-07-20T01:25:45;5.45;;;4.95;;
19339;SDS011;9804;52.350;6.684;2023-07-20T01:28:53;6.32;;;5.47;;
19339;SDS011;9804;52.350;6.684;2023-07-20T01:31:33;5.20;;;4.70;;
19339;SDS011;9804;52.350;6.684;2023-07-20T01:34:00;6.75;;;5.90;;
19339;SDS011;9804;52.350;6.684;2023-07-20T01:36:34;6.30;;;5.13;;
19339;SDS011;9804;52.350;6.684;2023-07-20T01:39:01;5.78;;;5.18;;
19339;SDS011;9804;52.350;6.684;2023-07-20T01:41:27;7.13;;;5.55;;
19339;SDS011;9804;52.350;6.684;2023-07-20T01:43:53;6.18;;;5.38;;
19339;SDS011;9804;52.350;6.684;2023-07-20T01:46:18;6.40;;;5.55;;
19339;SDS011;9804;52.350;6.684;2023-07-20T01:48:43;6.53;;;5.53;;
19339;SDS011;9804;52.350;6.684;2023-07-20T01:51:09;6.63;;;5.40;;
19339;SDS011;9804;52.350;6.684;2023-07-20T01:53:34;5.80;;;5.20;;
19339;SDS011;9804;52.350;6.684;2023-07-20T01:56:00;5.70;;;5.07;;
19339;SDS011;9804;52.350;6.684;2023-07-20T01:58:25;5.53;;;5.03;;
19339;SDS011;9804;52.350;6.684;2023-07-20T02:00:50;5.78;;;5.15;;
19339;SDS011;9804;52.350;6.684;2023-07-20T02:03:16;5.85;;;5.32;;
19339;SDS011;9804;52.350;6.684;2023-07-20T02:05:44;7.05;;;5.40;;
19339;SDS011;9804;52.350;6.684;2023-07-20T02:08:10;5.72;;;5.13;;
19339;SDS011;9804;52.350;6.684;2023-07-20T02:10:35;5.85;;;5.35;;
19339;SDS011;9804;52.350;6.684;2023-07-20T02:13:01;7.07;;;5.47;;
19339;SDS011;9804;52.350;6.684;2023-07-20T02:15:26;6.22;;;5.63;;
19339;SDS011;9804;52.350;6.684;2023-07-20T02:17:52;7.13;;;5.95;;
19339;SDS011;9804;52.350;6.684;2023-07-20T02:20:18;7.95;;;5.72;;
19339;SDS011;9804;52.350;6.684;2023-07-20T02:22:44;6.40;;;5.80;;
19339;SDS011;9804;52.350;6.684;2023-07-20T02:25:09;6.40;;;5.80;;
19339;SDS011;9804;52.350;6.684;2023-07-20T02:27:35;7.13;;;5.75;;
19339;SDS011;9804;52.350;6.684;2023-07-20T02:30:00;8.85;;;6.43;;
19339;SDS011;9804;52.350;6.684;2023-07-20T02:32:27;7.07;;;5.78;;
19339;SDS011;9804;52.350;6.684;2023-07-20T02:34:53;8.30;;;6.20;;
19339;SDS011;9804;52.350;6.684;2023-07-20T02:37:18;7.05;;;6.35;;
19339;SDS011;9804;52.350;6.684;2023-07-20T02:39:44;8.00;;;6.50;;
19339;SDS011;9804;52.350;6.684;2023-07-20T02:42:09;7.63;;;6.38;;
19339;SDS011;9804;52.350;6.684;2023-07-20T02:44:34;8.50;;;6.70;;
19339;SDS011;9804;52.350;6.684;2023-07-20T02:47:00;8.55;;;7.05;;
19339;SDS011;9804;52.350;6.684;2023-07-20T02:49:26;7.05;;;6.25;;
19339;SDS011;9804;52.350;6.684;2023-07-20T02:51:51;7.90;;;7.05;;
19339;SDS011;9804;52.350;6.684;2023-07-20T02:54:17;8.73;;;7.15;;
19339;SDS011;9804;52.350;6.684;2023-07-20T02:56:43;9.45;;;7.13;;
19339;SDS011;9804;52.350;6.684;2023-07-20T02:59:08;8.27;;;6.63;;
19339;SDS011;9804;52.350;6.684;2023-07-20T03:01:33;8.35;;;7.40;;
19339;SDS011;9804;52.350;6.684;2023-07-20T03:03:59;7.97;;;6.70;;
19339;SDS011;9804;52.350;6.684;2023-07-20T03:06:24;9.00;;;8.10;;
19339;SDS011;9804;52.350;6.684;2023-07-20T03:08:50;8.63;;;7.28;;
19339;SDS011;9804;52.350;6.684;2023-07-20T03:11:17;10.98;;;7.78;;
19339;SDS011;9804;52.350;6.684;2023-07-20T03:13:44;8.63;;;7.75;;
19339;SDS011;9804;52.350;6.684;2023-07-20T03:16:10;10.95;;;8.38;;
19339;SDS011;9804;52.350;6.684;2023-07-20T03:18:37;12.45;;;10.07;;
19339;SDS011;9804;52.350;6.684;2023-07-20T03:21:04;15.82;;;10.40;;
19339;SDS011;9804;52.350;6.684;2023-07-20T03:23:29;12.43;;;10.05;;
19339;SDS011;9804;52.350;6.684;2023-07-20T03:25:55;11.30;;;10.15;;
19339;SDS011;9804;52.350;6.684;2023-07-20T03:28:20;11.98;;;9.40;;
19339;SDS011;9804;52.350;6.684;2023-07-20T03:30:46;15.15;;;11.63;;
19339;SDS011;9804;52.350;6.684;2023-07-20T03:33:11;14.00;;;11.02;;
19339;SDS011;9804;52.350;6.684;2023-07-20T03:35:37;14.27;;;11.70;;
19339;SDS011;9804;52.350;6.684;2023-07-20T03:38:02;13.70;;;10.63;;
19339;SDS011;9804;52.350;6.684;2023-07-20T03:40:27;14.40;;;11.85;;
19339;SDS011;9804;52.350;6.684;2023-07-20T03:42:53;13.70;;;11.70;;
19339;SDS011;9804;52.350;6.684;2023-07-20T03:45:18;14.00;;;10.90;;
19339;SDS011;9804;52.350;6.684;2023-07-20T03:47:44;12.77;;;10.75;;
19339;SDS011;9804;52.350;6.684;2023-07-20T03:50:09;14.23;;;11.15;;
19339;SDS011;9804;52.350;6.684;2023-07-20T03:52:35;13.73;;;11.02;;
19339;SDS011;9804;52.350;6.684;2023-07-20T03:55:01;12.57;;;11.10;;
19339;SDS011;9804;52.350;6.684;2023-07-20T03:57:26;15.02;;;11.00;;
19339;SDS011;9804;52.350;6.684;2023-07-20T03:59:52;11.07;;;9.98;;
19339;SDS011;9804;52.350;6.684;2023-07-20T04:02:17;10.65;;;9.55;;
19339;SDS011;9804;52.350;6.684;2023-07-20T04:04:43;10.30;;;9.23;;
19339;SDS011;9804;52.350;6.684;2023-07-20T04:07:09;12.18;;;10.48;;
19339;SDS011;9804;52.350;6.684;2023-07-20T04:09:34;13.98;;;10.07;;
19339;SDS011;9804;52.350;6.684;2023-07-20T04:11:59;13.52;;;10.10;;
19339;SDS011;9804;52.350;6.684;2023-07-20T04:14:25;11.60;;;9.48;;
19339;SDS011;9804;52.350;6.684;2023-07-20T04:16:50;14.98;;;10.35;;
19339;SDS011;9804;52.350;6.684;2023-07-20T04:19:17;11.05;;;9.85;;
19339;SDS011;9804;52.350;6.684;2023-07-20T04:21:43;11.35;;;10.10;;
19339;SDS011;9804;52.350;6.684;2023-07-20T04:24:08;13.48;;;10.25;;
19339;SDS011;9804;52.350;6.684;2023-07-20T04:26:34;12.48;;;10.50;;
19339;SDS011;9804;52.350;6.684;2023-07-20T04:29:00;12.45;;;11.13;;
19339;SDS011;9804;52.350;6.684;2023-07-20T04:31:26;12.35;;;10.65;;
19339;SDS011;9804;52.350;6.684;2023-07-20T04:33:51;12.32;;;10.20;;
19339;SDS011;9804;52.350;6.684;2023-07-20T04:36:16;11.30;;;9.82;;
19339;SDS011;9804;52.350;6.684;2023-07-20T04:38:47;13.57;;;9.77;;
19339;SDS011;9804;52.350;6.684;2023-07-20T04:41:12;11.93;;;9.20;;
19339;SDS011;9804;52.350;6.684;2023-07-20T04:43:41;10.23;;;8.63;;
19339;SDS011;9804;52.350;6.684;2023-07-20T04:46:10;10.40;;;9.30;;
19339;SDS011;9804;52.350;6.684;2023-07-20T04:48:36;9.85;;;8.80;;
19339;SDS011;9804;52.350;6.684;2023-07-20T04:51:02;10.85;;;8.75;;
19339;SDS011;9804;52.350;6.684;2023-07-20T04:53:28;10.13;;;9.13;;
19339;SDS011;9804;52.350;6.684;2023-07-20T04:55:53;9.48;;;8.48;;
19339;SDS011;9804;52.350;6.684;2023-07-20T04:58:19;11.77;;;8.40;;
19339;SDS011;9804;52.350;6.684;2023-07-20T05:00:46;9.45;;;8.45;;
19339;SDS011;9804;52.350;6.684;2023-07-20T05:03:13;10.02;;;8.07;;
19339;SDS011;9804;52.350;6.684;2023-07-20T05:05:38;9.45;;;7.55;;
19339;SDS011;9804;52.350;6.684;2023-07-20T05:08:03;12.00;;;8.10;;
19339;SDS011;9804;52.350;6.684;2023-07-20T05:10:29;9.57;;;8.00;;
19339;SDS011;9804;52.350;6.684;2023-07-20T05:12:54;8.88;;;7.43;;
19339;SDS011;9804;52.350;6.684;2023-07-20T05:15:20;11.63;;;7.80;;
19339;SDS011;9804;52.350;6.684;2023-07-20T05:17:45;9.00;;;7.18;;
19339;SDS011;9804;52.350;6.684;2023-07-20T05:20:11;9.88;;;6.72;;
19339;SDS011;9804;52.350;6.684;2023-07-20T05:22:37;10.27;;;6.57;;
19339;SDS011;9804;52.350;6.684;2023-07-20T05:25:05;12.20;;;6.88;;
19339;SDS011;9804;52.350;6.684;2023-07-20T05:27:36;11.30;;;6.70;;
19339;SDS011;9804;52.350;6.684;2023-07-20T05:30:02;7.95;;;6.03;;
19339;SDS011;9804;52.350;6.684;2023-07-20T05:32:28;9.80;;;5.72;;
19339;SDS011;9804;52.350;6.684;2023-07-20T05:34:53;6.00;;;4.78;;
19339;SDS011;9804;52.350;6.684;2023-07-20T05:37:19;5.65;;;4.78;;
19339;SDS011;9804;52.350;6.684;2023-07-20T05:39:45;6.55;;;5.00;;
19339;SDS011;9804;52.350;6.684;2023-07-20T05:42:10;7.45;;;5.25;;
19339;SDS011;9804;52.350;6.684;2023-07-20T05:44:36;8.93;;;5.28;;
19339;SDS011;9804;52.350;6.684;2023-07-20T05:47:01;8.55;;;5.30;;
19339;SDS011;9804;52.350;6.684;2023-07-20T05:49:27;7.65;;;5.40;;
19339;SDS011;9804;52.350;6.684;2023-07-20T05:51:54;7.55;;;4.93;;
19339;SDS011;9804;52.350;6.684;2023-07-20T05:54:20;5.57;;;4.95;;
19339;SDS011;9804;52.350;6.684;2023-07-20T05:56:45;5.88;;;4.70;;
19339;SDS011;9804;52.350;6.684;2023-07-20T05:59:11;5.50;;;4.70;;
19339;SDS011;9804;52.350;6.684;2023-07-20T06:01:36;4.82;;;3.83;;
19339;SDS011;9804;52.350;6.684;2023-07-20T06:04:02;4.00;;;3.63;;
19339;SDS011;9804;52.350;6.684;2023-07-20T06:06:28;4.80;;;3.75;;
19339;SDS011;9804;52.350;6.684;2023-07-20T06:08:53;7.32;;;3.60;;
19339;SDS011;9804;52.350;6.684;2023-07-20T06:11:19;5.53;;;3.72;;
19339;SDS011;9804;52.350;6.684;2023-07-20T06:13:45;4.80;;;3.78;;
19339;SDS011;9804;52.350;6.684;2023-07-20T06:16:10;4.13;;;3.67;;
19339;SDS011;9804;52.350;6.684;2023-07-20T06:18:36;5.18;;;4.25;;
19339;SDS011;9804;52.350;6.684;2023-07-20T06:21:01;5.25;;;4.07;;
19339;SDS011;9804;52.350;6.684;2023-07-20T06:23:27;4.93;;;3.78;;
19339;SDS011;9804;52.350;6.684;2023-07-20T06:25:52;4.82;;;4.03;;
19339;SDS011;9804;52.350;6.684;2023-07-20T06:28:17;5.65;;;3.50;;
19339;SDS011;9804;52.350;6.684;2023-07-20T06:30:43;4.80;;;3.90;;
19339;SDS011;9804;52.350;6.684;2023-07-20T06:33:08;4.13;;;3.50;;
19339;SDS011;9804;52.350;6.684;2023-07-20T06:35:34;5.40;;;3.30;;
19339;SDS011;9804;52.350;6.684;2023-07-20T06:38:00;4.80;;;3.63;;
19339;SDS011;9804;52.350;6.684;2023-07-20T06:40:26;3.90;;;3.45;;
19339;SDS011;9804;52.350;6.684;2023-07-20T06:42:51;8.18;;;3.50;;
19339;SDS011;9804;52.350;6.684;2023-07-20T06:45:17;4.15;;;2.35;;
19339;SDS011;9804;52.350;6.684;2023-07-20T06:47:42;3.83;;;2.17;;
19339;SDS011;9804;52.350;6.684;2023-07-20T06:50:08;4.55;;;2.42;;
19339;SDS011;9804;52.350;6.684;2023-07-20T06:52:34;2.72;;;1.83;;
19339;SDS011;9804;52.350;6.684;2023-07-20T06:55:01;2.38;;;1.77;;
19339;SDS011;9804;52.350;6.684;2023-07-20T06:57:26;4.30;;;1.50;;
19339;SDS011;9804;52.350;6.684;2023-07-20T06:59:51;3.75;;;1.58;;
19339;SDS011;9804;52.350;6.684;2023-07-20T07:02:18;3.90;;;1.30;;
19339;SDS011;9804;52.350;6.684;2023-07-20T07:04:44;3.78;;;1.23;;
19339;SDS011;9804;52.350;6.684;2023-07-20T07:07:10;2.35;;;1.30;;
19339;SDS011;9804;52.350;6.684;2023-07-20T07:09:35;2.13;;;0.90;;
19339;SDS011;9804;52.350;6.684;2023-07-20T07:12:01;2.15;;;1.35;;
19339;SDS011;9804;52.350;6.684;2023-07-20T07:14:26;1.40;;;1.05;;
19339;SDS011;9804;52.350;6.684;2023-07-20T07:16:52;2.78;;;1.05;;
19339;SDS011;9804;52.350;6.684;2023-07-20T07:19:17;2.15;;;1.27;;
19339;SDS011;9804;52.350;6.684;2023-07-20T07:21:43;1.60;;;1.30;;
19339;SDS011;9804;52.350;6.684;2023-07-20T07:24:08;3.03;;;0.80;;
19339;SDS011;9804;52.350;6.684;2023-07-20T07:26:35;3.17;;;0.90;;
19339;SDS011;9804;52.350;6.684;2023-07-20T07:29:01;2.63;;;1.08;;
19339;SDS011;9804;52.350;6.684;2023-07-20T07:31:28;3.03;;;1.50;;
19339;SDS011;9804;52.350;6.684;2023-07-20T07:33:54;3.33;;;0.90;;
19339;SDS011;9804;52.350;6.684;2023-07-20T07:36:19;2.42;;;1.00;;
19339;SDS011;9804;52.350;6.684;2023-07-20T07:38:45;2.83;;;1.10;;
19339;SDS011;9804;52.350;6.684;2023-07-20T07:41:10;1.77;;;0.80;;
19339;SDS011;9804;52.350;6.684;2023-07-20T07:43:35;2.13;;;1.10;;
19339;SDS011;9804;52.350;6.684;2023-07-20T07:46:01;2.38;;;0.73;;
19339;SDS011;9804;52.350;6.684;2023-07-20T07:48:27;1.40;;;0.90;;
19339;SDS011;9804;52.350;6.684;2023-07-20T07:50:53;1.58;;;0.80;;
19339;SDS011;9804;52.350;6.684;2023-07-20T07:53:18;1.25;;;0.82;;
19339;SDS011;9804;52.350;6.684;2023-07-20T07:55:45;2.53;;;0.88;;
19339;SDS011;9804;52.350;6.684;2023-07-20T07:58:12;2.00;;;0.65;;
19339;SDS011;9804;52.350;6.684;2023-07-20T08:00:38;2.72;;;0.80;;
19339;SDS011;9804;52.350;6.684;2023-07-20T08:03:05;2.78;;;0.90;;
19339;SDS011;9804;52.350;6.684;2023-07-20T08:05:32;1.15;;;0.80;;
19339;SDS011;9804;52.350;6.684;2023-07-20T08:07:58;0.95;;;0.85;;
19339;SDS011;9804;52.350;6.684;2023-07-20T08:10:23;2.53;;;0.73;;
19339;SDS011;9804;52.350;6.684;2023-07-20T08:12:49;1.20;;;0.60;;
19339;SDS011;9804;52.350;6.684;2023-07-20T08:15:14;2.85;;;0.80;;
19339;SDS011;9804;52.350;6.684;2023-07-20T08:17:41;1.10;;;0.50;;
19339;SDS011;9804;52.350;6.684;2023-07-20T08:20:08;1.95;;;0.60;;
19339;SDS011;9804;52.350;6.684;2023-07-20T08:22:37;1.50;;;0.68;;
19339;SDS011;9804;52.350;6.684;2023-07-20T08:25:02;1.65;;;0.60;;
19339;SDS011;9804;52.350;6.684;2023-07-20T08:27:28;1.05;;;0.60;;
19339;SDS011;9804;52.350;6.684;2023-07-20T08:29:54;3.15;;;0.75;;
19339;SDS011;9804;52.350;6.684;2023-07-20T08:32:19;4.05;;;0.95;;
19339;SDS011;9804;52.350;6.684;2023-07-20T08:34:44;2.35;;;0.68;;
19339;SDS011;9804;52.350;6.684;2023-07-20T08:37:10;0.80;;;0.40;;
19339;SDS011;9804;52.350;6.684;2023-07-20T08:39:35;0.52;;;0.52;;
19339;SDS011;9804;52.350;6.684;2023-07-20T08:42:01;1.67;;;0.43;;
19339;SDS011;9804;52.350;6.684;2023-07-20T08:44:32;0.98;;;0.32;;
19339;SDS011;9804;52.350;6.684;2023-07-20T08:46:58;2.15;;;0.50;;
19339;SDS011;9804;52.350;6.684;2023-07-20T08:49:26;1.25;;;0.47;;
19339;SDS011;9804;52.350;6.684;2023-07-20T08:52:00;5.33;;;0.40;;
19339;SDS011;9804;52.350;6.684;2023-07-20T08:54:29;3.25;;;0.93;;
19339;SDS011;9804;52.350;6.684;2023-07-20T08:56:57;1.42;;;0.32;;
19339;SDS011;9804;52.350;6.684;2023-07-20T08:59:28;0.40;;;0.40;;
19339;SDS011;9804;52.350;6.684;2023-07-20T09:01:54;1.27;;;0.50;;
19339;SDS011;9804;52.350;6.684;2023-07-20T09:04:22;1.00;;;0.57;;
19339;SDS011;9804;52.350;6.684;2023-07-20T09:06:48;3.42;;;0.60;;
19339;SDS011;9804;52.350;6.684;2023-07-20T09:09:14;1.52;;;0.40;;
19339;SDS011;9804;52.350;6.684;2023-07-20T09:11:40;1.42;;;0.50;;
19339;SDS011;9804;52.350;6.684;2023-07-20T09:14:06;0.50;;;0.47;;
19339;SDS011;9804;52.350;6.684;2023-07-20T09:16:38;1.00;;;0.50;;
19339;SDS011;9804;52.350;6.684;2023-07-20T09:19:14;1.05;;;0.63;;
19339;SDS011;9804;52.350;6.684;2023-07-20T09:21:40;3.13;;;0.88;;
19339;SDS011;9804;52.350;6.684;2023-07-20T09:24:05;0.52;;;0.52;;
19339;SDS011;9804;52.350;6.684;2023-07-20T09:26:31;1.75;;;0.75;;
19339;SDS011;9804;52.350;6.684;2023-07-20T09:29:06;0.80;;;0.55;;
19339;SDS011;9804;52.350;6.684;2023-07-20T09:31:32;0.82;;;0.40;;
19339;SDS011;9804;52.350;6.684;2023-07-20T09:33:58;0.85;;;0.30;;
19339;SDS011;9804;52.350;6.684;2023-07-20T09:36:23;1.90;;;0.47;;
19339;SDS011;9804;52.350;6.684;2023-07-20T09:38:48;3.22;;;0.60;;
19339;SDS011;9804;52.350;6.684;2023-07-20T09:41:14;0.98;;;0.50;;
19339;SDS011;9804;52.350;6.684;2023-07-20T09:43:43;2.38;;;0.63;;
19339;SDS011;9804;52.350;6.684;2023-07-20T09:46:10;2.83;;;0.75;;
19339;SDS011;9804;52.350;6.684;2023-07-20T09:48:36;1.98;;;0.52;;
19339;SDS011;9804;52.350;6.684;2023-07-20T09:51:01;2.50;;;0.63;;
19339;SDS011;9804;52.350;6.684;2023-07-20T09:53:28;0.98;;;0.60;;
19339;SDS011;9804;52.350;6.684;2023-07-20T09:55:54;3.10;;;0.50;;
19339;SDS011;9804;52.350;6.684;2023-07-20T09:58:21;1.23;;;0.40;;
19339;SDS011;9804;52.350;6.684;2023-07-20T10:00:46;2.58;;;0.40;;
19339;SDS011;9804;52.350;6.684;2023-07-20T10:03:18;1.02;;;0.50;;
19339;SDS011;9804;52.350;6.684;2023-07-20T10:05:51;2.55;;;0.63;;
19339;SDS011;9804;52.350;6.684;2023-07-20T10:08:21;0.77;;;0.52;;
19339;SDS011;9804;52.350;6.684;2023-07-20T10:10:53;1.20;;;0.50;;
19339;SDS011;9804;52.350;6.684;2023-07-20T10:13:25;1.65;;;0.35;;
19339;SDS011;9804;52.350;6.684;2023-07-20T10:15:58;2.15;;;0.50;;
19339;SDS011;9804;52.350;6.684;2023-07-20T10:18:29;1.13;;;0.60;;
19339;SDS011;9804;52.350;6.684;2023-07-20T10:20:59;1.67;;;0.47;;
19339;SDS011;9804;52.350;6.684;2023-07-20T10:23:26;2.58;;;0.40;;
19339;SDS011;9804;52.350;6.684;2023-07-20T10:25:53;1.00;;;0.40;;
19339;SDS011;9804;52.350;6.684;2023-07-20T10:28:19;0.80;;;0.57;;
19339;SDS011;9804;52.350;6.684;2023-07-20T10:30:45;1.75;;;0.40;;
19339;SDS011;9804;52.350;6.684;2023-07-20T10:33:11;3.40;;;0.50;;
19339;SDS011;9804;52.350;6.684;2023-07-20T10:38:37;0.68;;;0.50;;
19339;SDS011;9804;52.350;6.684;2023-07-20T10:41:04;0.80;;;0.50;;
19339;SDS011;9804;52.350;6.684;2023-07-20T10:43:50;1.27;;;0.57;;
19339;SDS011;9804;52.350;6.684;2023-07-20T10:46:39;1.33;;;0.50;;
19339;SDS011;9804;52.350;6.684;2023-07-20T10:49:09;0.98;;;0.43;;
19339;SDS011;9804;52.350;6.684;2023-07-20T10:51:42;0.65;;;0.52;;
19339;SDS011;9804;52.350;6.684;2023-07-20T10:54:53;2.60;;;0.50;;
19339;SDS011;9804;52.350;6.684;2023-07-20T10:56:55;1.35;;;0.70;;
19339;SDS011;9804;52.350;6.684;2023-07-20T10:59:40;0.70;;;0.40;;
19339;SDS011;9804;52.350;6.684;2023-07-20T11:02:06;3.22;;;0.60;;
19339;SDS011;9804;52.350;6.684;2023-07-20T11:04:39;0.65;;;0.47;;
19339;SDS011;9804;52.350;6.684;2023-07-20T11:07:05;0.47;;;0.30;;
19339;SDS011;9804;52.350;6.684;2023-07-20T11:09:33;0.57;;;0.50;;
19339;SDS011;9804;52.350;6.684;2023-07-20T11:12:12;1.75;;;0.60;;
19339;SDS011;9804;52.350;6.684;2023-07-20T11:14:43;1.55;;;0.80;;
19339;SDS011;9804;52.350;6.684;2023-07-20T11:17:19;1.60;;;0.50;;
19339;SDS011;9804;52.350;6.684;2023-07-20T11:19:55;1.67;;;0.52;;
19339;SDS011;9804;52.350;6.684;2023-07-20T11:22:22;0.70;;;0.40;;
19339;SDS011;9804;52.350;6.684;2023-07-20T11:24:47;0.50;;;0.50;;
19339;SDS011;9804;52.350;6.684;2023-07-20T11:27:14;2.13;;;0.57;;
19339;SDS011;9804;52.350;6.684;2023-07-20T11:29:40;2.20;;;0.68;;
19339;SDS011;9804;52.350;6.684;2023-07-20T11:32:05;1.08;;;0.60;;
19339;SDS011;9804;52.350;6.684;2023-07-20T11:34:31;1.13;;;0.63;;
19339;SDS011;9804;52.350;6.684;2023-07-20T11:36:58;1.25;;;0.60;;
19339;SDS011;9804;52.350;6.684;2023-07-20T11:39:23;0.60;;;0.40;;
19339;SDS011;9804;52.350;6.684;2023-07-20T11:41:54;1.75;;;0.50;;
19339;SDS011;9804;52.350;6.684;2023-07-20T11:44:21;1.20;;;0.98;;
19339;SDS011;9804;52.350;6.684;2023-07-20T11:47:11;1.15;;;0.77;;
19339;SDS011;9804;52.350;6.684;2023-07-20T11:49:43;0.52;;;0.52;;
19339;SDS011;9804;52.350;6.684;2023-07-20T11:52:18;0.93;;;0.47;;
19339;SDS011;9804;52.350;6.684;2023-07-20T11:54:43;1.05;;;0.65;;
19339;SDS011;9804;52.350;6.684;2023-07-20T11:57:17;1.85;;;0.47;;
19339;SDS011;9804;52.350;6.684;2023-07-20T11:59:55;0.93;;;0.60;;
19339;SDS011;9804;52.350;6.684;2023-07-20T12:02:29;1.15;;;0.50;;
19339;SDS011;9804;52.350;6.684;2023-07-20T12:04:55;0.85;;;0.43;;
19339;SDS011;9804;52.350;6.684;2023-07-20T12:07:21;0.50;;;0.40;;
19339;SDS011;9804;52.350;6.684;2023-07-20T12:10:02;1.00;;;0.50;;
19339;SDS011;9804;52.350;6.684;2023-07-20T12:12:42;1.40;;;0.50;;
19339;SDS011;9804;52.350;6.684;2023-07-20T12:15:26;0.40;;;0.40;;
19339;SDS011;9804;52.350;6.684;2023-07-20T12:17:55;1.48;;;0.50;;
19339;SDS011;9804;52.350;6.684;2023-07-20T12:20:29;1.88;;;0.80;;
19339;SDS011;9804;52.350;6.684;2023-07-20T12:23:02;1.92;;;0.82;;
19339;SDS011;9804;52.350;6.684;2023-07-20T12:25:33;1.23;;;0.60;;
19339;SDS011;9804;52.350;6.684;2023-07-20T12:28:01;2.45;;;0.60;;
19339;SDS011;9804;52.350;6.684;2023-07-20T12:30:29;0.60;;;0.47;;
19339;SDS011;9804;52.350;6.684;2023-07-20T12:32:54;1.05;;;0.50;;
19339;SDS011;9804;52.350;6.684;2023-07-20T12:35:20;0.73;;;0.57;;
19339;SDS011;9804;52.350;6.684;2023-07-20T12:37:45;3.45;;;0.47;;
19339;SDS011;9804;52.350;6.684;2023-07-20T12:40:14;2.17;;;0.80;;
19339;SDS011;9804;52.350;6.684;2023-07-20T12:42:39;1.00;;;0.77;;
19339;SDS011;9804;52.350;6.684;2023-07-20T12:45:05;1.33;;;0.63;;
19339;SDS011;9804;52.350;6.684;2023-07-20T12:47:31;0.80;;;0.63;;
19339;SDS011;9804;52.350;6.684;2023-07-20T12:49:56;2.38;;;0.60;;
19339;SDS011;9804;52.350;6.684;2023-07-20T12:52:22;1.20;;;0.95;;
19339;SDS011;9804;52.350;6.684;2023-07-20T12:54:47;2.05;;;0.60;;
19339;SDS011;9804;52.350;6.684;2023-07-20T12:57:12;0.70;;;0.70;;
19339;SDS011;9804;52.350;6.684;2023-07-20T12:59:38;0.65;;;0.63;;
19339;SDS011;9804;52.350;6.684;2023-07-20T13:02:03;0.98;;;0.77;;
19339;SDS011;9804;52.350;6.684;2023-07-20T13:04:29;2.25;;;0.70;;
19339;SDS011;9804;52.350;6.684;2023-07-20T13:06:55;2.78;;;0.98;;
19339;SDS011;9804;52.350;6.684;2023-07-20T13:09:20;0.63;;;0.63;;
19339;SDS011;9804;52.350;6.684;2023-07-20T13:11:46;3.85;;;0.90;;
19339;SDS011;9804;52.350;6.684;2023-07-20T13:14:11;2.35;;;0.50;;
19339;SDS011;9804;52.350;6.684;2023-07-20T13:16:36;1.50;;;0.60;;
19339;SDS011;9804;52.350;6.684;2023-07-20T13:19:02;0.90;;;0.70;;
19339;SDS011;9804;52.350;6.684;2023-07-20T13:21:27;2.65;;;0.90;;
19339;SDS011;9804;52.350;6.684;2023-07-20T13:23:53;1.08;;;0.70;;
19339;SDS011;9804;52.350;6.684;2023-07-20T13:26:18;0.73;;;0.60;;
19339;SDS011;9804;52.350;6.684;2023-07-20T13:28:44;2.00;;;0.80;;
19339;SDS011;9804;52.350;6.684;2023-07-20T13:31:09;1.67;;;0.47;;
19339;SDS011;9804;52.350;6.684;2023-07-20T13:33:36;1.15;;;0.80;;
19339;SDS011;9804;52.350;6.684;2023-07-20T13:36:01;1.33;;;0.60;;
19339;SDS011;9804;52.350;6.684;2023-07-20T13:38:27;1.50;;;0.70;;
19339;SDS011;9804;52.350;6.684;2023-07-20T13:40:52;0.70;;;0.60;;
19339;SDS011;9804;52.350;6.684;2023-07-20T13:43:17;1.73;;;0.55;;
19339;SDS011;9804;52.350;6.684;2023-07-20T13:45:43;3.60;;;0.90;;
19339;SDS011;9804;52.350;6.684;2023-07-20T13:48:08;0.57;;;0.50;;
19339;SDS011;9804;52.350;6.684;2023-07-20T13:50:34;3.80;;;0.70;;
19339;SDS011;9804;52.350;6.684;2023-07-20T13:52:59;0.98;;;0.73;;
19339;SDS011;9804;52.350;6.684;2023-07-20T13:55:27;0.90;;;0.60;;
19339;SDS011;9804;52.350;6.684;2023-07-20T13:57:53;1.45;;;0.65;;
19339;SDS011;9804;52.350;6.684;2023-07-20T14:00:18;1.38;;;0.70;;
19339;SDS011;9804;52.350;6.684;2023-07-20T14:02:44;1.15;;;0.70;;
19339;SDS011;9804;52.350;6.684;2023-07-20T14:05:09;1.05;;;0.70;;
19339;SDS011;9804;52.350;6.684;2023-07-20T14:07:35;0.60;;;0.60;;
19339;SDS011;9804;52.350;6.684;2023-07-20T14:10:01;1.02;;;0.60;;
19339;SDS011;9804;52.350;6.684;2023-07-20T14:12:26;1.25;;;0.70;;
19339;SDS011;9804;52.350;6.684;2023-07-20T14:14:53;0.93;;;0.60;;
19339;SDS011;9804;52.350;6.684;2023-07-20T14:17:19;3.17;;;0.80;;
19339;SDS011;9804;52.350;6.684;2023-07-20T14:19:44;2.45;;;0.63;;
19339;SDS011;9804;52.350;6.684;2023-07-20T14:22:10;1.00;;;0.90;;
19339;SDS011;9804;52.350;6.684;2023-07-20T14:24:35;1.08;;;0.77;;
19339;SDS011;9804;52.350;6.684;2023-07-20T14:27:00;1.17;;;0.82;;
19339;SDS011;9804;52.350;6.684;2023-07-20T14:29:26;1.85;;;0.80;;
19339;SDS011;9804;52.350;6.684;2023-07-20T14:31:51;1.55;;;0.90;;
19339;SDS011;9804;52.350;6.684;2023-07-20T14:34:17;1.25;;;0.80;;
19339;SDS011;9804;52.350;6.684;2023-07-20T14:36:44;1.48;;;0.80;;
19339;SDS011;9804;52.350;6.684;2023-07-20T14:39:09;1.05;;;0.75;;
19339;SDS011;9804;52.350;6.684;2023-07-20T14:41:34;1.83;;;1.00;;
19339;SDS011;9804;52.350;6.684;2023-07-20T14:44:00;2.42;;;1.10;;
19339;SDS011;9804;52.350;6.684;2023-07-20T14:46:25;2.10;;;1.25;;
19339;SDS011;9804;52.350;6.684;2023-07-20T14:48:51;3.22;;;0.93;;
19339;SDS011;9804;52.350;6.684;2023-07-20T14:51:17;2.47;;;0.90;;
19339;SDS011;9804;52.350;6.684;2023-07-20T14:53:42;2.05;;;1.10;;
19339;SDS011;9804;52.350;6.684;2023-07-20T14:56:08;2.58;;;1.85;;
19339;SDS011;9804;52.350;6.684;2023-07-20T14:58:33;1.10;;;1.00;;
19339;SDS011;9804;52.350;6.684;2023-07-20T15:00:58;1.77;;;0.85;;
19339;SDS011;9804;52.350;6.684;2023-07-20T15:03:24;2.33;;;0.98;;